Time;durP1;ratioP1;P1;durP2;ratioP2;P2;SDS_P1;SDS_P2;PMS_P1;PMS_P2;Temp;Humidity;BMP_temperature;BMP_pressure;BME280_temperature;BME280_humidity;BME280_pressure;Samples;Min_cycle;Max_cycle;Signal;HPM_P1;HPM_P2
2023/05/08 00:01:52;43895.00;0.15;76.63;0.00;0.00;0.62;;;;;19.40;6.70;;;;;;2550572;56;1132;-85
2023/05/08 00:04:19;121969.00;0.41;211.48;0.00;0.00;0.62;;;;;19.60;6.10;;;;;;2550749;56;1343;-86
2023/05/08 00:06:46;76920.00;0.26;133.72;0.00;0.00;0.62;;;;;19.40;7.10;;;;;;2550760;56;978;-86
2023/05/08 00:09:14;64447.00;0.21;112.16;0.00;0.00;0.62;;;;;19.40;7.60;;;;;;2552756;56;1477;-86
2023/05/08 00:11:41;118375.00;0.39;205.28;24365.00;0.08;42.83;;;;;19.60;6.50;;;;;;2552862;56;2133;-85
2023/05/08 00:14:08;19665.00;0.07;34.69;0.00;0.00;0.62;;;;;19.60;6.40;;;;;;2550618;56;1377;-85
2023/05/08 00:16:37;95346.00;0.32;165.54;0.00;0.00;0.62;;;;;19.60;6.40;;;;;;2552812;56;1956;-85
2023/05/08 00:19:04;148555.00;0.50;257.32;0.00;0.00;0.62;;;;;19.60;6.70;;;;;;2552818;56;2073;-85
2023/05/08 00:21:31;87014.00;0.29;151.15;0.00;0.00;0.62;;;;;19.60;6.40;;;;;;2550784;56;977;-85
2023/05/08 00:23:58;371944.00;1.24;641.58;74038.00;0.25;128.74;;;;;19.80;6.20;;;;;;2550716;56;1380;-85
2023/05/08 00:26:25;164864.00;0.55;285.42;0.00;0.00;0.62;;;;;19.80;5.90;;;;;;2552896;56;1030;-86
2023/05/08 00:28:52;40290.00;0.13;70.39;0.00;0.00;0.62;;;;;19.70;5.90;;;;;;2552875;56;957;-86
2023/05/08 00:31:22;102554.00;0.34;177.98;0.00;0.00;0.62;;;;;19.80;6.20;;;;;;2552875;56;1149;-85
2023/05/08 00:33:51;259170.00;0.86;447.72;23200.00;0.08;40.81;;;;;19.80;6.00;;;;;;2552731;56;1258;-88
2023/05/08 00:36:18;58416.00;0.19;101.74;0.00;0.00;0.62;;;;;19.70;6.00;;;;;;2552814;56;1954;-87
2023/05/08 00:38:47;190010.00;0.63;328.73;0.00;0.00;0.62;;;;;19.50;7.20;;;;;;2552620;56;1671;-85
2023/05/08 00:41:14;127622.00;0.43;221.23;0.00;0.00;0.62;;;;;19.70;6.80;;;;;;2552739;56;957;-87
2023/05/08 00:43:41;44376.00;0.15;77.46;0.00;0.00;0.62;;;;;19.80;7.50;;;;;;2552630;56;1262;-87
2023/05/08 00:46:09;93596.00;0.31;162.52;0.00;0.00;0.62;;;;;19.90;6.20;;;;;;2550376;56;1119;-87
2023/05/08 00:48:39;130107.00;0.43;225.51;0.00;0.00;0.62;;;;;19.70;6.50;;;;;;2552506;56;1127;-90
2023/05/08 00:51:10;51773.00;0.17;90.25;0.00;0.00;0.62;;;;;19.80;7.30;;;;;;2550448;56;974;-86
2023/05/08 00:53:44;41502.00;0.14;72.49;0.00;0.00;0.62;;;;;19.70;6.80;;;;;;2550422;56;1432;-86
2023/05/08 00:56:13;212670.00;0.71;367.73;0.00;0.00;0.62;;;;;19.50;7.50;;;;;;2552630;56;1896;-87
2023/05/08 00:58:41;56483.00;0.19;98.40;0.00;0.00;0.62;;;;;19.40;7.90;;;;;;2550447;56;1412;-87
2023/05/08 01:01:08;81270.00;0.27;141.23;0.00;0.00;0.62;;;;;19.60;7.60;;;;;;2552747;56;1052;-88
2023/05/08 01:03:36;159188.00;0.53;275.64;0.00;0.00;0.62;;;;;19.50;7.20;;;;;;2552817;56;1395;-87
2023/05/08 01:06:05;147683.00;0.49;255.81;0.00;0.00;0.62;;;;;19.70;6.00;;;;;;2552708;56;1670;-86
2023/05/08 01:08:33;74116.00;0.25;128.87;0.00;0.00;0.62;;;;;19.60;6.00;;;;;;2552936;56;1019;-87
2023/05/08 01:11:11;5905.00;0.02;10.85;0.00;0.00;0.62;;;;;19.50;6.00;;;;;;2550695;56;986;-88
2023/05/08 01:13:51;43121.00;0.14;75.29;0.00;0.00;0.62;;;;;19.50;6.70;;;;;;2550509;56;1410;-87
2023/05/08 01:16:27;27078.00;0.09;47.53;0.00;0.00;0.62;;;;;19.80;6.00;;;;;;2550584;56;1938;-86
2023/05/08 01:19:03;92446.00;0.31;160.53;0.00;0.00;0.62;;;;;19.80;6.00;;;;;;2550381;56;1073;-86
2023/05/08 01:21:39;72631.00;0.24;126.31;0.00;0.00;0.62;;;;;19.90;6.10;;;;;;2550387;56;957;-86
2023/05/08 01:24:40;8035.00;0.03;14.54;0.00;0.00;0.62;;;;;19.60;6.50;;;;;;2552631;56;1585;-86
2023/05/08 01:27:40;6308.00;0.02;11.55;0.00;0.00;0.62;;;;;19.80;6.40;;;;;;2552641;56;945;-86
2023/05/08 01:30:47;44923.00;0.15;78.41;0.00;0.00;0.62;;;;;19.80;6.80;;;;;;2550311;56;971;-86
2023/05/08 01:33:25;79660.00;0.27;138.45;0.00;0.00;0.62;;;;;19.70;6.10;;;;;;2552657;56;1399;-87
2023/05/08 01:36:00;60185.00;0.20;104.80;0.00;0.00;0.62;;;;;19.80;6.80;;;;;;2552552;56;1749;-87
2023/05/08 01:38:33;68039.00;0.23;118.37;0.00;0.00;0.62;;;;;19.80;7.00;;;;;;2550434;56;1897;-87
2023/05/08 01:41:08;187381.00;0.62;324.20;29274.00;0.10;51.33;;;;;20.00;6.20;;;;;;2552638;56;1002;-88
2023/05/08 01:43:44;184085.00;0.61;318.52;37518.00;0.13;65.59;;;;;19.90;6.10;;;;;;2552588;56;1465;-86
2023/05/08 01:46:18;139696.00;0.47;242.05;0.00;0.00;0.62;;;;;19.70;5.90;;;;;;2552661;56;992;-89
2023/05/08 01:48:52;182035.00;0.61;314.99;0.00;0.00;0.62;;;;;19.70;6.20;;;;;;2550245;56;1053;-87
2023/05/08 01:51:23;30911.00;0.10;54.16;0.00;0.00;0.62;;;;;19.90;6.10;;;;;;2550374;56;1109;-88
2023/05/08 01:53:56;74893.00;0.25;130.21;0.00;0.00;0.62;;;;;20.00;6.20;;;;;;2552586;56;1356;-87
2023/05/08 01:56:27;6785.00;0.02;12.38;0.00;0.00;0.62;;;;;19.90;6.10;;;;;;2552510;56;1954;-88
2023/05/08 01:58:57;37424.00;0.12;65.43;0.00;0.00;0.62;;;;;19.60;7.10;;;;;;2552493;56;1721;-87
2023/05/08 02:01:28;22721.00;0.08;39.98;0.00;0.00;0.62;;;;;19.50;7.10;;;;;;2550473;56;1005;-87
2023/05/08 02:03:59;109220.00;0.36;189.48;0.00;0.00;0.62;;;;;19.70;6.90;;;;;;2550465;56;1414;-87
2023/05/08 02:06:29;352237.00;1.17;607.71;61763.00;0.21;107.52;;;;;19.60;7.20;;;;;;2552627;56;966;-85
2023/05/08 02:08:59;19371.00;0.06;34.18;0.00;0.00;0.62;;;;;19.80;6.60;;;;;;2552579;56;978;-87
2023/05/08 02:11:27;22714.00;0.08;39.97;0.00;0.00;0.62;;;;;19.70;5.90;;;;;;2550435;56;1120;-86
2023/05/08 02:13:57;149054.00;0.50;258.18;0.00;0.00;0.62;;;;;19.70;6.20;;;;;;2550415;56;1363;-87
2023/05/08 02:16:26;28615.00;0.10;50.19;0.00;0.00;0.62;;;;;19.70;7.20;;;;;;2550280;56;1899;-86
2023/05/08 02:18:58;32347.00;0.11;56.65;0.00;0.00;0.62;;;;;19.60;6.20;;;;;;2550337;56;954;-87
2023/05/08 02:21:26;131559.00;0.44;228.02;0.00;0.00;0.62;;;;;19.70;7.20;;;;;;2550263;56;1123;-86
2023/05/08 02:23:56;200252.00;0.67;346.36;0.00;0.00;0.62;;;;;19.40;7.60;;;;;;2552558;56;1356;-86
2023/05/08 02:26:25;118792560.00;395.98;67906288.00;0.00;0.00;0.62;;;;;19.50;6.70;;;;;;2552382;56;1410;-86
2023/05/08 02:28:54;107362.00;0.36;186.28;0.00;0.00;0.62;;;;;19.90;6.30;;;;;;2552545;56;1096;-88
2023/05/08 02:31:22;137528.00;0.46;238.31;0.00;0.00;0.62;;;;;20.00;6.20;;;;;;2552592;56;1520;-87
2023/05/08 02:33:50;135294.00;0.45;234.46;19542.00;0.07;34.48;;;;;20.00;6.20;;;;;;2552384;56;1507;-87
2023/05/08 02:36:19;81925.00;0.27;142.36;0.00;0.00;0.62;;;;;20.10;6.20;;;;;;2552492;56;971;-88
2023/05/08 02:38:50;125652.00;0.42;217.83;0.00;0.00;0.62;;;;;20.10;6.20;;;;;;2550386;56;1954;-87
2023/05/08 02:41:21;123308.00;0.41;213.79;0.00;0.00;0.62;;;;;20.10;6.20;;;;;;2552513;56;2383;-88
2023/05/08 02:43:48;51369.00;0.17;89.55;0.00;0.00;0.62;;;;;20.00;6.20;;;;;;2552520;56;1304;-88
2023/05/08 02:46:18;273395.00;0.91;472.18;19322.00;0.06;34.10;;;;;19.70;5.90;;;;;;2552564;56;1140;-86
2023/05/08 02:48:55;136437.00;0.45;236.43;0.00;0.00;0.62;;;;;19.70;7.10;;;;;;2550480;56;1107;-87
2023/05/08 02:51:29;108562.00;0.36;188.35;0.00;0.00;0.62;;;;;19.90;5.90;;;;;;2552268;56;1246;-87
2023/05/08 02:54:04;152624.00;0.51;264.33;0.00;0.00;0.62;;;;;19.70;7.30;;;;;;2552386;56;1432;-87
2023/05/08 02:56:37;120551.00;0.40;209.03;0.00;0.00;0.62;;;;;19.60;7.20;;;;;;2552589;56;1198;-86
2023/05/08 02:59:21;16169.00;0.05;28.64;0.00;0.00;0.62;;;;;19.30;8.10;;;;;;2550401;56;1044;-88
2023/05/08 03:01:56;106444.00;0.35;184.69;98705.00;0.33;171.34;;;;;18.70;10.00;;;;;;2552608;56;972;-87
2023/05/08 03:04:29;124917368.00;416.39;78971736.00;30479.00;0.10;53.41;;;;;18.50;12.30;;;;;;2550608;56;1462;-87
2023/05/08 03:06:59;232628.00;0.78;402.07;9686.00;0.03;17.41;;;;;18.70;11.00;;;;;;2550636;56;1061;-88
2023/05/08 03:09:33;73733.00;0.25;128.21;0.00;0.00;0.62;;;;;18.90;10.70;;;;;;2550531;56;1094;-88
2023/05/08 03:12:06;51889.00;0.17;90.45;0.00;0.00;0.62;;;;;18.90;9.70;;;;;;2552771;56;1551;-87
2023/05/08 03:14:43;19723.00;0.07;34.79;0.00;0.00;0.62;;;;;19.20;9.40;;;;;;2550425;56;1409;-87
2023/05/08 03:17:16;21927.00;0.07;38.61;0.00;0.00;0.62;;;;;19.30;8.90;;;;;;2550664;56;1932;-86
2023/05/08 03:19:50;270383.00;0.90;467.00;15177.00;0.05;26.92;;;;;19.30;8.30;;;;;;2552766;56;998;-88
2023/05/08 03:22:21;235169.00;0.78;406.44;28703.00;0.10;50.34;;;;;19.20;8.60;;;;;;2552740;56;1137;-87
2023/05/08 03:24:49;312700.00;1.04;539.75;51218.00;0.17;89.29;;;;;19.30;8.00;;;;;;2552863;56;1365;-88
2023/05/08 03:27:19;118754.00;0.40;205.93;0.00;0.00;0.62;;;;;19.20;8.50;;;;;;2552752;56;934;-87
2023/05/08 03:29:47;35602.00;0.12;62.28;0.00;0.00;0.62;;;;;19.40;8.50;;;;;;2550583;56;2072;-86
2023/05/08 03:32:15;81087.00;0.27;140.91;0.00;0.00;0.62;;;;;19.70;7.10;;;;;;2550611;56;1021;-88
2023/05/08 03:34:42;155477.00;0.52;269.25;0.00;0.00;0.62;;;;;19.80;7.00;;;;;;2550716;56;1384;-87
2023/05/08 03:37:09;49013.00;0.16;85.48;0.00;0.00;0.62;;;;;19.90;6.20;;;;;;2550540;56;1950;-87
2023/05/08 03:39:38;20429.00;0.07;36.01;0.00;0.00;0.62;;;;;19.80;6.00;;;;;;2550686;56;1120;-88
2023/05/08 03:42:05;0.00;0.00;0.62;0.00;0.00;0.62;;;;;19.80;6.00;;;;;;2552721;56;950;-86
2023/05/08 03:44:33;158450.00;0.53;274.37;0.00;0.00;0.62;;;;;19.80;6.20;;;;;;2552765;56;1327;-86
2023/05/08 03:47:02;89889.00;0.30;156.12;0.00;0.00;0.62;;;;;19.90;6.10;;;;;;2552587;56;906;-86
2023/05/08 03:49:30;99960.00;0.33;173.50;0.00;0.00;0.62;;;;;19.90;6.10;;;;;;2550713;56;1100;-86
2023/05/08 03:51:59;53865.00;0.18;93.87;0.00;0.00;0.62;;;;;19.90;6.40;;;;;;2552724;56;1418;-87
2023/05/08 03:54:27;52570.00;0.18;91.63;0.00;0.00;0.62;;;;;19.90;6.10;;;;;;2552650;56;1321;-87
2023/05/08 03:56:55;99914.00;0.33;173.42;0.00;0.00;0.62;;;;;19.90;6.10;;;;;;2550672;56;1080;-87
2023/05/08 03:59:28;84006.00;0.28;145.96;0.00;0.00;0.62;;;;;19.90;6.20;;;;;;2552813;56;1163;-86
2023/05/08 04:02:04;16525.00;0.06;29.25;0.00;0.00;0.62;;;;;19.80;6.40;;;;;;2550557;56;1179;-86
2023/05/08 04:04:39;92853.00;0.31;161.23;0.00;0.00;0.62;;;;;19.80;6.00;;;;;;2550675;56;1493;-86
2023/05/08 04:07:12;116855.00;0.39;202.66;0.00;0.00;0.62;;;;;19.80;6.00;;;;;;2550510;56;1154;-86
2023/05/08 04:09:44;89269.00;0.30;155.05;0.00;0.00;0.62;;;;;19.90;6.10;;;;;;2552829;56;961;-86
2023/05/08 04:12:20;4508.00;0.02;8.43;0.00;0.00;0.62;;;;;19.90;6.10;;;;;;2552847;56;962;-86
2023/05/08 04:14:52;55807.00;0.19;97.23;0.00;0.00;0.62;;;;;19.80;6.00;;;;;;2550504;56;1435;-86
2023/05/08 04:17:40;51829.00;0.17;90.35;0.00;0.00;0.62;;;;;19.80;6.00;;;;;;2552785;56;1940;-88
2023/05/08 04:20:11;68917.00;0.23;119.89;0.00;0.00;0.62;;;;;19.80;6.00;;;;;;2550700;56;1091;-86
2023/05/08 04:22:40;29768.00;0.10;52.18;0.00;0.00;0.62;;;;;19.80;6.00;;;;;;2550466;56;1103;-88
2023/05/08 04:25:11;74142.00;0.25;128.92;0.00;0.00;0.62;;;;;19.80;6.00;;;;;;2550684;56;1332;-88
2023/05/08 04:27:39;137814.00;0.46;238.80;0.00;0.00;0.62;;;;;19.80;6.00;;;;;;2550507;56;1151;-86
2023/05/08 04:30:08;60595.00;0.20;105.51;0.00;0.00;0.62;;;;;19.80;6.00;;;;;;2552717;56;1493;-87
2023/05/08 04:32:37;7208.00;0.02;13.11;0.00;0.00;0.62;;;;;19.70;6.70;;;;;;2550406;56;1170;-87
2023/05/08 04:35:04;365561.00;1.22;630.61;23893.00;0.08;42.01;;;;;19.80;6.00;;;;;;2552641;56;1357;-85
2023/05/08 04:37:31;45747.00;0.15;79.83;0.00;0.00;0.62;;;;;19.40;7.40;;;;;;2552708;56;2009;-86
2023/05/08 04:39:59;12041.00;0.04;21.49;0.00;0.00;0.62;;;;;19.40;8.20;;;;;;2550661;56;953;-89
2023/05/08 04:42:27;142458.00;0.47;246.81;44970.00;0.15;78.49;;;;;19.50;8.10;;;;;;2552611;56;1241;-88
2023/05/08 04:44:55;68317.00;0.23;118.85;0.00;0.00;0.62;;;;;19.50;7.30;;;;;;2550534;56;1362;-88
2023/05/08 04:47:22;100843.00;0.34;175.03;0.00;0.00;0.62;;;;;19.60;7.30;;;;;;2550553;56;1088;-87
2023/05/08 04:49:50;314628.00;1.05;543.06;109100.00;0.36;189.28;;;;;19.60;8.10;;;;;;2550482;40;3521;-87
2023/05/08 04:52:17;106630.00;0.36;185.01;0.00;0.00;0.62;;;;;19.70;7.50;;;;;;2552948;56;1178;-86
2023/05/08 04:54:46;49638.00;0.17;86.56;0.00;0.00;0.62;;;;;19.80;7.00;;;;;;2550853;56;1414;-87
2023/05/08 04:57:13;77255.00;0.26;134.30;0.00;0.00;0.62;;;;;19.90;6.10;;;;;;2550595;56;1948;-86
2023/05/08 04:59:40;198527.00;0.66;343.39;44891.00;0.15;78.35;;;;;19.80;6.00;;;;;;2550747;56;1106;-88
2023/05/08 05:02:09;17710.00;0.06;31.30;0.00;0.00;0.62;;;;;19.70;5.90;;;;;;2552972;56;974;-88
2023/05/08 05:04:36;265868.00;0.89;459.24;8247.00;0.03;14.91;;;;;19.50;6.30;;;;;;2553022;56;1273;-88
2023/05/08 05:07:03;177239.00;0.59;306.73;0.00;0.00;0.62;;;;;19.60;7.10;;;;;;2550903;56;1092;-88
2023/05/08 05:09:33;0.00;0.00;0.62;0.00;0.00;0.62;;;;;19.60;6.60;;;;;;2550782;56;1132;-87
2023/05/08 05:12:00;173810.00;0.58;300.83;0.00;0.00;0.62;;;;;19.40;7.80;;;;;;2552666;56;865;-87
2023/05/08 05:14:27;0.00;0.00;0.62;0.00;0.00;0.62;;;;;19.30;7.70;;;;;;2552797;56;2301;-87
2023/05/08 05:16:54;126643.00;0.42;219.54;0.00;0.00;0.62;;;;;19.20;8.10;;;;;;2552761;56;960;-87
2023/05/08 05:19:22;87084.00;0.29;151.27;0.00;0.00;0.62;;;;;19.10;8.30;;;;;;2552963;56;1957;-91
2023/05/08 05:21:49;90217.00;0.30;156.68;0.00;0.00;0.62;;;;;19.20;7.90;;;;;;2550901;56;1055;-87
2023/05/08 05:24:16;6139.00;0.02;11.26;0.00;0.00;0.62;;;;;19.30;8.10;;;;;;2550611;56;1316;-85
2023/05/08 05:26:43;124994.00;0.42;216.70;15603.00;0.05;27.66;;;;;19.30;8.40;;;;;;2552972;56;981;-87
2023/05/08 05:29:10;100387.00;0.33;174.24;0.00;0.00;0.62;;;;;19.30;8.60;;;;;;2550808;56;1089;-88
2023/05/08 05:31:36;24853.00;0.08;43.67;0.00;0.00;0.62;;;;;19.20;8.50;;;;;;2550879;56;1033;-87
2023/05/08 05:34:03;85221.00;0.28;148.05;0.00;0.00;0.62;;;;;19.30;8.10;;;;;;2552982;56;2187;-88
2023/05/08 05:36:32;0.00;0.00;0.62;0.00;0.00;0.62;;;;;19.70;7.50;;;;;;2550832;56;1116;-87
2023/05/08 05:38:59;0.00;0.00;0.62;0.00;0.00;0.62;;;;;19.90;6.80;;;;;;2550852;56;1952;-86
2023/05/08 05:41:25;11447.00;0.04;20.46;0.00;0.00;0.62;;;;;19.90;6.20;;;;;;2553048;56;1036;-87
2023/05/08 05:43:53;33384.00;0.11;58.44;0.00;0.00;0.62;;;;;19.90;6.20;;;;;;2550860;56;1340;-87
2023/05/08 05:46:19;81852.00;0.27;142.24;0.00;0.00;0.62;;;;;20.00;6.20;;;;;;2550858;56;1143;-87
2023/05/08 05:48:46;111117.00;0.37;192.76;26874.00;0.09;47.17;;;;;20.20;6.90;;;;;;2550875;56;1121;-87
2023/05/08 05:51:13;23350.00;0.08;41.07;0.00;0.00;0.62;;;;;20.10;6.00;;;;;;2550862;56;1143;-86
2023/05/08 05:53:42;9067.00;0.03;16.33;0.00;0.00;0.62;;;;;20.10;6.10;;;;;;2550861;56;1226;-87
2023/05/08 05:56:09;327343.00;1.09;564.92;21271.00;0.07;37.47;;;;;20.30;5.40;;;;;;2553038;56;2170;-88
2023/05/08 05:58:36;31801.00;0.11;55.70;0.00;0.00;0.62;;;;;20.10;6.10;;;;;;2550862;56;1898;-87
2023/05/08 06:01:03;170993.00;0.57;295.98;0.00;0.00;0.62;;;;;20.00;6.10;;;;;;2552828;56;1509;-89
2023/05/08 06:03:30;26152.00;0.09;45.92;0.00;0.00;0.62;;;;;20.10;6.20;;;;;;2550850;56;1265;-87
2023/05/08 06:05:57;26612.00;0.09;46.72;0.00;0.00;0.62;;;;;19.80;6.00;;;;;;2550870;56;1088;-92
2023/05/08 06:08:24;18863.00;0.06;33.30;0.00;0.00;0.62;;;;;20.00;6.40;;;;;;2550877;56;1007;-85
2023/05/08 06:10:52;29573.00;0.10;51.84;0.00;0.00;0.62;;;;;20.20;5.60;;;;;;2552940;56;1569;-86
2023/05/08 06:13:19;42953.00;0.14;75.00;0.00;0.00;0.62;;;;;20.10;6.20;;;;;;2550850;56;1356;-87
2023/05/08 06:15:46;18457.00;0.06;32.60;0.00;0.00;0.62;;;;;20.40;5.00;;;;;;2550893;56;1084;-89
2023/05/08 06:18:13;21027.00;0.07;37.05;0.00;0.00;0.62;;;;;20.40;5.60;;;;;;2553003;56;1961;-88
2023/05/08 06:20:40;14044.00;0.05;24.95;0.00;0.00;0.62;;;;;20.50;4.50;;;;;;2552963;56;1685;-88
2023/05/08 06:23:07;383858.00;1.28;662.06;97852.00;0.33;169.86;;;;;20.40;5.00;;;;;;2552992;56;1235;-85
2023/05/08 06:25:34;29093.00;0.10;51.01;0.00;0.00;0.62;;;;;20.20;5.50;;;;;;2553041;56;975;-86
2023/05/08 06:28:05;186800.00;0.62;323.20;0.00;0.00;0.62;;;;;20.30;5.40;;;;;;2550862;56;1033;-86
2023/05/08 06:30:32;13855.00;0.05;24.63;0.00;0.00;0.62;;;;;20.20;5.10;;;;;;2550975;56;991;-86
2023/05/08 06:32:59;129535.00;0.43;224.53;15415.00;0.05;27.33;;;;;20.10;6.20;;;;;;2553159;56;1431;-87
2023/05/08 06:35:25;138386.00;0.46;239.79;12714.00;0.04;22.65;;;;;20.20;5.60;;;;;;2553049;56;1691;-87
2023/05/08 06:37:52;94713.00;0.32;164.45;0.00;0.00;0.62;;;;;20.30;4.90;;;;;;2553087;56;1948;-85
2023/05/08 06:40:19;54308.00;0.18;94.64;0.00;0.00;0.62;;;;;20.10;6.30;;;;;;2553068;56;959;-86
2023/05/08 06:42:47;27647.00;0.09;48.51;0.00;0.00;0.62;;;;;20.10;6.20;;;;;;2550987;56;1116;-85
2023/05/08 06:45:15;139079.00;0.46;240.98;0.00;0.00;0.62;;;;;20.20;5.50;;;;;;2553045;56;1297;-86
2023/05/08 06:47:42;9976.00;0.03;17.91;0.00;0.00;0.62;;;;;20.00;6.20;;;;;;2551003;56;1091;-86
2023/05/08 06:50:10;0.00;0.00;0.62;0.00;0.00;0.62;;;;;20.20;6.00;;;;;;2550991;56;1173;-86
2023/05/08 06:52:37;187126.00;0.62;323.76;28881.00;0.10;50.65;;;;;20.30;6.40;;;;;;2553199;56;978;-88
2023/05/08 06:55:05;46191.00;0.15;80.60;0.00;0.00;0.62;;;;;20.20;6.20;;;;;;2553219;56;1345;-87
2023/05/08 06:57:31;0.00;0.00;0.62;0.00;0.00;0.62;;;;;20.20;6.30;;;;;;2553259;56;788;-88
2023/05/08 07:00:00;75109.00;0.25;130.59;0.00;0.00;0.62;;;;;20.20;6.30;;;;;;2552984;56;1970;-86
2023/05/08 07:02:28;41094.00;0.14;71.78;0.00;0.00;0.62;;;;;20.00;6.20;;;;;;2550769;56;1100;-86
2023/05/08 07:04:55;226127.00;0.75;390.89;0.00;0.00;0.62;;;;;19.60;7.60;;;;;;2552902;56;1349;-87
2023/05/08 07:07:22;56952.00;0.19;99.21;0.00;0.00;0.62;;;;;19.30;9.00;;;;;;2552831;56;1549;-85
2023/05/08 07:09:49;157029.00;0.52;271.92;28185.00;0.09;49.44;;;;;19.00;9.60;;;;;;2552974;56;1559;-87
2023/05/08 07:12:16;215610.00;0.72;372.79;25035.00;0.08;43.99;;;;;19.00;10.10;;;;;;2552870;56;1001;-88
2023/05/08 07:14:46;31344.00;0.10;54.91;0.00;0.00;0.62;;;;;18.90;10.80;;;;;;2552880;56;1332;-88
2023/05/08 07:17:12;110570.00;0.37;191.81;0.00;0.00;0.62;;;;;19.00;9.90;;;;;;2552700;56;1618;-87
2023/05/08 07:22:11;176409.00;0.59;305.31;0.00;0.00;0.62;;;;;19.40;9.30;;;;;;2555874;56;876;-87
2023/05/08 07:29:35;101144.00;0.34;175.55;0.00;0.00;0.62;;;;;19.90;6.90;;;;;;2555802;56;909;-88
2023/05/08 07:32:04;76364.00;0.25;132.76;0.00;0.00;0.62;;;;;20.00;7.30;;;;;;2555791;56;1067;-88
2023/05/08 07:37:00;103531.00;0.35;179.67;0.00;0.00;0.62;;;;;20.00;6.30;;;;;;2550621;56;851;-86
2023/05/08 07:56:59;438402.00;1.46;755.83;99299.00;0.33;172.36;;;;;18.80;10.70;;;;;;2550317;56;886;-88
2023/05/08 08:09:31;619895.00;2.07;1068.58;90802.00;0.30;157.69;;;;;18.60;13.00;;;;;;2547940;41;3474;-89
2023/05/08 08:12:00;791643.00;2.64;1366.55;85343.00;0.28;148.27;;;;;18.70;13.20;;;;;;2552430;56;1150;-88
2023/05/08 08:24:32;570849.00;1.90;983.91;4004.00;0.01;7.56;;;;;18.60;13.20;;;;;;2552466;56;1194;-89
2023/05/08 08:27:06;547574.00;1.83;943.78;0.00;0.00;0.62;;;;;18.70;13.00;;;;;;2553111;56;1703;-90
2023/05/08 08:29:33;777811.00;2.59;1342.45;0.00;0.00;0.62;;;;;19.20;10.90;;;;;;2550760;56;1691;-89
2023/05/08 08:32:02;545581.00;1.82;940.34;23031.00;0.08;40.52;;;;;19.60;9.00;;;;;;2553227;56;956;-87
2023/05/08 08:34:29;480119.00;1.60;827.60;0.00;0.00;0.62;;;;;19.60;8.60;;;;;;2553162;56;1247;-87
2023/05/08 08:36:56;847955.00;2.83;1464.89;58322.00;0.19;101.58;;;;;19.80;8.70;;;;;;2551028;56;1671;-87
2023/05/08 08:41:51;508018.00;1.69;875.63;0.00;0.00;0.62;;;;;20.20;7.40;;;;;;2556190;56;858;-88
2023/05/08 08:44:19;580256.00;1.93;1000.14;2858.00;0.01;5.57;;;;;20.20;6.30;;;;;;2555370;55;1643;-88
2023/05/08 08:46:52;559116.00;1.86;963.68;24520.00;0.08;43.10;;;;;20.20;6.40;;;;;;2553063;56;1126;-88
2023/05/08 08:49:23;444549.00;1.48;766.41;19981.00;0.07;35.24;;;;;20.00;6.70;;;;;;2550856;56;1685;-87
2023/05/08 08:51:53;306288.00;1.02;528.73;3496.00;0.01;6.68;;;;;20.20;6.90;;;;;;2550866;56;958;-87
2023/05/08 08:54:25;400830.00;1.34;691.23;6299.00;0.02;11.54;;;;;20.40;6.40;;;;;;2552976;56;1508;-87
2023/05/08 08:56:54;315546.00;1.05;544.64;0.00;0.00;0.62;;;;;20.40;6.40;;;;;;2553072;56;1049;-88
2023/05/08 08:59:26;570585.00;1.90;983.46;15659.00;0.05;27.75;;;;;20.30;6.40;;;;;;2553062;56;1953;-87
2023/05/08 09:01:58;415925.00;1.39;717.18;0.00;0.00;0.62;;;;;20.60;6.50;;;;;;2553052;56;1431;-88
2023/05/08 09:04:26;490336.00;1.63;845.19;12315.00;0.04;21.96;;;;;20.50;6.80;;;;;;2552916;56;1319;-88
2023/05/08 09:06:54;346848.00;1.16;598.44;0.00;0.00;0.62;;;;;19.90;7.20;;;;;;2552904;56;1580;-90
2023/05/08 09:09:21;566350.00;1.89;976.15;30613.00;0.10;53.64;;;;;20.10;6.30;;;;;;2552988;56;1456;-88
2023/05/08 09:14:16;463767.00;1.55;799.47;20370.00;0.07;35.91;;;;;20.80;6.70;;;;;;2552984;56;1178;-87
2023/05/08 09:16:45;361981.00;1.21;624.45;5669.00;0.02;10.44;;;;;21.30;5.70;;;;;;2552972;56;1392;-89
2023/05/08 09:19:14;399733.00;1.33;689.35;44475.00;0.15;77.63;;;;;21.30;4.70;;;;;;2553064;56;1957;-88
2023/05/08 09:21:42;689157.00;2.30;1188.44;0.00;0.00;0.62;;;;;21.40;3.00;;;;;;2553021;56;1599;-87
2023/05/08 09:24:09;389525.00;1.30;671.80;0.00;0.00;0.62;;;;;21.30;3.70;;;;;;2553204;56;1350;-87
2023/05/08 09:26:38;265007.00;0.88;457.76;2119.00;0.01;4.29;;;;;21.10;3.80;;;;;;2553203;56;973;-88
2023/05/08 09:29:09;393494.00;1.31;678.62;0.00;0.00;0.62;;;;;21.50;3.10;;;;;;2551023;56;1036;-88
2023/05/08 09:31:38;565493.00;1.88;974.67;28298.00;0.09;49.64;;;;;21.80;1.90;;;;;;2551364;40;3531;-89
2023/05/08 09:34:10;571722.00;1.91;985.42;21535.00;0.07;37.93;;;;;21.50;1.80;;;;;;2552794;56;1538;-87
2023/05/08 09:36:39;139721.00;0.47;242.09;0.00;0.00;0.62;;;;;21.20;2.10;;;;;;2553091;56;1004;-87
2023/05/08 09:39:12;75119.00;0.25;130.61;0.00;0.00;0.62;;;;;21.10;2.30;;;;;;2549612;40;3521;-88
2023/05/08 09:41:40;86362.00;0.29;150.03;0.00;0.00;0.62;;;;;20.90;4.20;;;;;;2550776;56;986;-86
2023/05/08 09:44:09;215929.00;0.72;373.34;0.00;0.00;0.62;;;;;21.20;4.70;;;;;;2552963;56;1666;-89
2023/05/08 09:46:36;803.00;0.00;2.01;0.00;0.00;0.62;;;;;21.50;1.50;;;;;;2553162;56;1656;-88
2023/05/08 09:49:03;150028.00;0.50;259.86;0.00;0.00;0.62;;;;;21.70;1.60;;;;;;2552243;40;3657;31
2023/05/08 09:51:32;111152.00;0.37;192.82;0.00;0.00;0.62;;;;;21.90;1.00;;;;;;2546959;56;3718;-88
2023/05/08 09:54:02;386389.00;1.29;666.41;19653.00;0.07;34.67;;;;;21.70;1.30;;;;;;2552973;56;1332;-88
2023/05/08 09:56:38;68282.00;0.23;118.79;0.00;0.00;0.62;;;;;21.90;1.70;;;;;;2553152;56;1493;-88
2023/05/08 09:59:21;122101.00;0.41;211.71;0.00;0.00;0.62;;;;;22.20;2.00;;;;;;2553093;56;1956;-88
2023/05/08 10:01:48;215328.00;0.72;372.30;0.00;0.00;0.62;;;;;22.30;1.00;;;;;;2550841;56;1579;-88
2023/05/08 10:04:17;70532.00;0.24;122.68;0.00;0.00;0.62;;;;;22.50;1.00;;;;;;2552993;56;1629;-89
2023/05/08 10:06:57;165694.00;0.55;286.85;0.00;0.00;0.62;;;;;22.60;1.00;;;;;;2553127;56;1895;-89
2023/05/08 10:09:24;2349.00;0.01;4.69;0.00;0.00;0.62;;;;;22.40;1.00;;;;;;2553111;56;1604;-87
2023/05/08 10:11:54;156789.00;0.52;271.51;0.00;0.00;0.62;;;;;22.50;1.30;;;;;;2553131;56;1515;-88
2023/05/08 10:14:22;27235.00;0.09;47.80;0.00;0.00;0.62;;;;;22.80;1.00;;;;;;2552995;56;1568;-89
2023/05/08 10:16:51;96879.00;0.32;168.18;0.00;0.00;0.62;;;;;22.60;1.00;;;;;;2550948;56;1116;-89
2023/05/08 10:19:21;43873.00;0.15;76.59;0.00;0.00;0.62;;;;;22.40;1.00;;;;;;2553201;56;1952;-88
2023/05/08 10:21:52;230.00;0.00;1.02;0.00;0.00;0.62;;;;;22.50;1.00;;;;;;2552971;56;1690;-89
2023/05/08 10:24:21;102572.00;0.34;178.01;0.00;0.00;0.62;;;;;22.60;1.00;;;;;;2553029;56;1720;-88
2023/05/08 10:26:56;43594.00;0.15;76.11;0.00;0.00;0.62;;;;;22.30;1.00;;;;;;2553003;56;1542;-88
2023/05/08 10:29:35;74148.00;0.25;128.93;0.00;0.00;0.62;;;;;22.50;1.00;;;;;;2553045;56;1612;-89
2023/05/08 10:32:07;34990.00;0.12;61.22;0.00;0.00;0.62;;;;;23.00;1.00;;;;;;2553051;56;1552;-88
2023/05/08 10:34:35;50407.00;0.17;87.89;0.00;0.00;0.62;;;;;23.20;1.00;;;;;;2552889;56;1575;-87
2023/05/08 10:37:04;34308.00;0.11;60.04;0.00;0.00;0.62;;;;;23.50;1.00;;;;;;2552918;56;1659;-89
2023/05/08 10:39:33;166180.00;0.55;287.69;0.00;0.00;0.62;;;;;23.20;1.00;;;;;;2550678;56;1952;-88
2023/05/08 10:42:01;125102.00;0.42;216.88;0.00;0.00;0.62;;;;;23.30;1.00;;;;;;2552871;56;1902;-88
2023/05/08 10:44:30;141051.00;0.47;244.38;0.00;0.00;0.62;;;;;23.40;1.00;;;;;;2552638;56;1332;-89
2023/05/08 10:47:09;153498.00;0.51;265.84;0.00;0.00;0.62;;;;;23.40;1.00;;;;;;2552734;56;1431;-89
2023/05/08 10:49:47;44328.00;0.15;77.38;0.00;0.00;0.62;;;;;23.30;1.00;;;;;;2552943;56;1615;-88
2023/05/08 10:52:24;274981.00;0.92;474.91;58763.00;0.20;102.34;;;;;23.40;1.00;;;;;;2550630;56;1016;-88
2023/05/08 10:55:23;214781.00;0.72;371.36;0.00;0.00;0.62;;;;;23.80;1.00;;;;;;2550795;41;3563;-88
2023/05/08 10:58:11;125528.00;0.42;217.62;0.00;0.00;0.62;;;;;23.80;1.00;;;;;;2552905;56;1525;-90
2023/05/08 11:01:16;66133.00;0.22;115.08;0.00;0.00;0.62;;;;;23.50;1.00;;;;;;2552777;56;1963;-90
2023/05/08 11:06:15;242105.00;0.81;418.37;86132.00;0.29;149.63;;;;;22.90;1.00;;;;;;2546357;56;677;-87
2023/05/08 11:08:53;247183.00;0.82;427.11;78296.00;0.26;136.09;;;;;23.10;1.00;;;;;;2547703;56;1559;-88